createdAt,value
2022-11-24T00:01:22.510Z,29.00
2022-11-24T00:03:55.512Z,27.90
2022-11-24T00:06:24.223Z,22.00
2022-11-24T00:08:52.987Z,20.90
2022-11-24T00:11:32.141Z,18.70
2022-11-24T00:14:00.533Z,22.90
2022-11-24T00:16:33.808Z,15.50
2022-11-24T00:19:03.846Z,25.00
2022-11-24T00:24:00.342Z,33.00
2022-11-24T00:26:33.498Z,50.40
2022-11-24T00:29:03.469Z,41.50
2022-11-24T00:31:35.807Z,25.50
2022-11-24T00:34:06.546Z,22.10
2022-11-24T00:36:36.163Z,19.30
2022-11-24T00:39:11.045Z,21.30
2022-11-24T00:41:39.650Z,24.00
2022-11-24T00:44:08.163Z,17.90
2022-11-24T00:46:36.136Z,21.60
2022-11-24T00:49:03.918Z,9.80
2022-11-24T00:51:31.874Z,29.50
2022-11-24T00:54:01.095Z,28.00
2022-11-24T00:56:30.044Z,46.80
2022-11-24T00:58:58.163Z,36.20
2022-11-24T01:01:28.550Z,29.90
2022-11-24T01:03:58.144Z,25.00
2022-11-24T01:06:27.129Z,22.30
2022-11-24T01:08:56.910Z,20.40
2022-11-24T01:11:29.579Z,17.30
2022-11-24T01:13:59.184Z,16.10
2022-11-24T01:16:34.860Z,20.20
2022-11-24T01:19:03.852Z,16.20
2022-11-24T01:21:31.619Z,25.70
2022-11-24T01:23:59.394Z,37.70
2022-11-24T01:26:27.200Z,34.50
2022-11-24T01:28:56.730Z,35.50
2022-11-24T01:31:25.838Z,24.60
2022-11-24T01:33:54.501Z,23.80
2022-11-24T01:36:23.086Z,20.60
2022-11-24T01:38:50.859Z,18.40
2022-11-24T01:41:24.393Z,22.20
2022-11-24T01:43:54.123Z,19.80
2022-11-24T01:46:38.831Z,16.30
2022-11-24T01:49:20.044Z,12.20
2022-11-24T01:51:53.579Z,20.20
2022-11-24T01:54:32.722Z,26.70
2022-11-24T01:57:06.256Z,37.40
2022-11-24T01:59:33.958Z,41.30
2022-11-24T02:02:02.149Z,24.90
2022-11-24T02:04:33.286Z,20.00
2022-11-24T02:07:03.431Z,19.00
2022-11-24T02:12:32.551Z,10.20
2022-11-24T02:15:00.359Z,17.70
2022-11-24T02:17:28.014Z,12.20
2022-11-24T02:19:58.433Z,14.80
2022-11-24T02:22:50.859Z,26.90
2022-11-24T02:25:30.394Z,38.20
2022-11-24T02:28:00.144Z,45.30
2022-11-24T02:30:28.261Z,25.90
2022-11-24T02:32:56.174Z,20.80
2022-11-24T02:35:26.548Z,23.40
2022-11-24T02:37:54.514Z,25.50
2022-11-24T02:40:25.706Z,18.90
2022-11-24T02:42:58.495Z,14.90
2022-11-24T02:45:27.438Z,17.20
2022-11-24T02:47:55.099Z,18.90
2022-11-24T02:50:23.090Z,21.10
2022-11-24T02:52:50.748Z,30.30
2022-11-24T02:55:18.881Z,41.70
2022-11-24T02:57:47.103Z,50.10
2022-11-24T03:00:15.640Z,36.00
2022-11-24T03:02:43.316Z,19.90
2022-11-24T03:05:13.046Z,22.30
2022-11-24T03:07:40.996Z,21.80
2022-11-24T03:10:09.097Z,22.00
2022-11-24T03:12:36.903Z,23.20
2022-11-24T03:15:06.277Z,19.40
2022-11-24T03:17:34.069Z,15.90
2022-11-24T03:20:04.941Z,16.00
2022-11-24T03:22:33.620Z,9.10
2022-11-24T03:25:01.292Z,23.10
2022-11-24T03:27:30.465Z,42.10
2022-11-24T03:29:58.152Z,41.20
2022-11-24T03:32:25.858Z,33.20
2022-11-24T03:34:53.499Z,23.70
2022-11-24T03:37:22.536Z,17.60
2022-11-24T03:39:50.296Z,18.00
2022-11-24T03:42:17.975Z,20.80
2022-11-24T03:44:45.729Z,12.40
2022-11-24T03:47:13.400Z,12.20
2022-11-24T03:49:41.513Z,14.40
2022-11-24T03:52:09.703Z,10.30
2022-11-24T03:54:37.397Z,7.20
2022-11-24T03:57:05.077Z,24.20
2022-11-24T03:59:33.061Z,29.00
2022-11-24T04:02:00.760Z,26.40
2022-11-24T04:04:28.633Z,14.60
2022-11-24T04:06:56.487Z,13.40
2022-11-24T04:09:24.129Z,11.30
2022-11-24T04:12:10.365Z,13.40
2022-11-24T04:14:38.110Z,15.00
2022-11-24T04:17:05.944Z,12.00
2022-11-24T04:19:33.590Z,10.50
2022-11-24T04:22:01.219Z,11.90
2022-11-24T04:24:28.954Z,22.10
2022-11-24T04:26:56.723Z,36.10
2022-11-24T04:29:24.439Z,23.30
2022-11-24T04:31:52.699Z,13.60
2022-11-24T04:34:20.549Z,15.30
2022-11-24T04:36:48.244Z,12.80
2022-11-24T04:39:24.378Z,12.90
2022-11-24T04:41:53.876Z,8.90
2022-11-24T04:44:21.641Z,11.60
2022-11-24T04:46:49.372Z,12.90
2022-11-24T04:49:17.530Z,9.40
2022-11-24T04:51:45.355Z,9.80
2022-11-24T04:54:14.238Z,10.70
2022-11-24T04:56:42.653Z,20.30
2022-11-24T04:59:14.978Z,30.30
2022-11-24T05:01:44.317Z,28.30
2022-11-24T05:04:14.219Z,18.10
2022-11-24T05:06:42.408Z,13.10
2022-11-24T05:09:17.646Z,12.50
2022-11-24T05:11:45.347Z,12.50
2022-11-24T05:14:13.046Z,10.10
2022-11-24T05:16:40.849Z,8.70
2022-11-24T05:19:08.582Z,9.60
2022-11-24T05:21:36.874Z,11.90
2022-11-24T05:24:04.960Z,8.40
2022-11-24T05:26:32.846Z,9.10
2022-11-24T05:29:00.632Z,9.20
2022-11-24T05:31:28.372Z,29.50
2022-11-24T05:37:09.421Z,16.10
2022-11-24T05:39:38.020Z,11.30
2022-11-24T05:42:26.409Z,15.50
2022-11-24T05:47:22.431Z,14.40
2022-11-24T05:49:50.077Z,12.30
2022-11-24T05:52:18.242Z,9.10
2022-11-24T05:54:45.912Z,11.80
2022-11-24T05:57:13.698Z,12.80
2022-11-24T05:59:41.358Z,23.70
2022-11-24T06:02:10.105Z,27.20
2022-11-24T06:04:38.294Z,18.90
2022-11-24T06:07:11.650Z,22.90
2022-11-24T06:09:41.582Z,15.20
2022-11-24T06:14:38.098Z,12.10
2022-11-24T06:17:06.617Z,16.10
2022-11-24T06:19:37.467Z,11.70
2022-11-24T06:22:09.337Z,11.60
2022-11-24T06:24:37.226Z,12.90
2022-11-24T06:27:05.009Z,9.30
2022-11-24T06:29:32.658Z,16.10
2022-11-24T06:32:00.456Z,28.00
2022-11-24T06:34:28.332Z,23.30
2022-11-24T06:36:56.017Z,21.20
2022-11-24T06:39:23.828Z,13.40
2022-11-24T06:41:52.356Z,16.30
2022-11-24T06:44:20.244Z,15.00
2022-11-24T06:46:48.178Z,12.40
2022-11-24T06:49:16.940Z,11.30
2022-11-24T06:51:44.689Z,12.80
2022-11-24T06:54:17.012Z,9.60
2022-11-24T06:56:44.744Z,10.20
2022-11-24T06:59:20.022Z,10.00
2022-11-24T07:01:47.820Z,14.60
2022-11-24T07:04:16.773Z,29.40
2022-11-24T07:06:44.574Z,27.60
2022-11-24T07:09:14.906Z,21.70
2022-11-24T07:11:42.666Z,14.20
2022-11-24T07:14:10.629Z,15.30
2022-11-24T07:16:39.014Z,15.20
2022-11-24T07:19:06.660Z,12.30
2022-11-24T07:21:34.307Z,12.60
2022-11-24T07:24:02.046Z,9.40
2022-11-24T07:26:29.958Z,11.50
2022-11-24T07:28:57.813Z,6.70
2022-11-24T07:31:25.561Z,8.50
2022-11-24T07:33:55.252Z,12.60
2022-11-24T07:36:23.618Z,18.10
2022-11-24T07:38:51.485Z,28.30
2022-11-24T07:41:20.224Z,24.20
2022-11-24T07:43:48.685Z,18.50
2022-11-24T07:46:18.017Z,17.20
2022-11-24T07:48:46.707Z,13.20
2022-11-24T07:51:14.771Z,9.80
2022-11-24T07:53:42.483Z,11.30
2022-11-24T07:56:10.334Z,11.50
2022-11-24T07:58:38.333Z,8.10
2022-11-24T08:01:11.355Z,61.60
2022-11-24T08:03:39.683Z,56.20
2022-11-24T08:06:24.080Z,10.90
2022-11-24T08:08:55.025Z,18.60
2022-11-24T08:11:23.233Z,30.60
2022-11-24T08:13:51.211Z,30.70
2022-11-24T08:16:20.177Z,23.70
2022-11-24T08:18:53.216Z,13.20
2022-11-24T08:21:23.255Z,14.60
2022-11-24T08:23:56.162Z,9.80
2022-11-24T08:26:25.349Z,9.90
2022-11-24T08:28:58.264Z,13.50
2022-11-24T08:31:33.340Z,10.90
2022-11-24T08:34:04.038Z,10.70
2022-11-24T08:36:33.112Z,12.30
2022-11-24T08:39:01.924Z,7.40
2022-11-24T08:41:30.807Z,21.60
2022-11-24T08:43:58.796Z,38.70
2022-11-24T08:46:26.511Z,25.00
2022-11-24T08:48:55.247Z,17.70
2022-11-24T08:51:26.016Z,14.50
2022-11-24T08:53:55.854Z,20.80
2022-11-24T08:56:24.475Z,16.60
2022-11-24T08:58:53.531Z,10.30
2022-11-24T09:01:22.059Z,8.50
2022-11-24T09:03:51.386Z,13.50
2022-11-24T09:06:25.133Z,9.40
2022-11-24T09:08:57.202Z,14.70
2022-11-24T09:11:26.269Z,26.90
2022-11-24T09:13:55.085Z,29.20
2022-11-24T09:16:29.054Z,26.10
2022-11-24T09:18:59.746Z,20.10
2022-11-24T09:21:28.433Z,14.50
2022-11-24T09:23:56.465Z,15.50
2022-11-24T09:26:27.748Z,9.50
2022-11-24T09:28:57.355Z,10.10
2022-11-24T09:31:28.192Z,31.30
2022-11-24T09:33:56.773Z,18.80
2022-11-24T09:36:24.818Z,37.20
2022-11-24T09:38:52.624Z,24.10
2022-11-24T09:41:23.124Z,21.00
2022-11-24T09:44:09.126Z,35.20
2022-11-24T09:46:50.431Z,36.40
2022-11-24T09:49:27.565Z,44.20
2022-11-24T09:51:57.026Z,34.70
2022-11-24T09:54:29.902Z,32.40
2022-11-24T09:57:00.913Z,16.70
2022-11-24T09:59:28.745Z,12.60
2022-11-24T10:01:56.655Z,14.40
2022-11-24T10:04:52.493Z,12.40
2022-11-24T10:07:48.667Z,19.00
2022-11-24T10:10:25.160Z,21.80
2022-11-24T10:13:31.371Z,28.50
2022-11-24T10:16:04.634Z,18.30
2022-11-24T10:19:14.587Z,18.20
2022-11-24T10:21:54.461Z,7.00
2022-11-24T10:24:44.183Z,13.90
2022-11-24T10:27:46.514Z,10.80
2022-11-24T10:30:18.383Z,9.10
2022-11-24T10:32:55.635Z,9.70
2022-11-24T10:35:46.992Z,22.10
2022-11-24T10:38:20.782Z,30.70
2022-11-24T10:40:58.794Z,20.60
2022-11-24T10:43:28.612Z,15.80
2022-11-24T10:46:27.206Z,12.60
2022-11-24T10:49:04.863Z,11.80
2022-11-24T10:51:41.498Z,9.70
2022-11-24T10:54:19.620Z,17.50
2022-11-24T10:56:50.912Z,11.70
2022-11-24T10:59:21.537Z,17.80
2022-11-24T11:01:49.462Z,14.50
2022-11-24T11:04:24.873Z,20.00
2022-11-24T11:06:52.719Z,21.90
2022-11-24T11:09:22.139Z,18.80
2022-11-24T11:11:53.487Z,25.30
2022-11-24T11:14:33.225Z,13.20
2022-11-24T11:17:01.574Z,15.10
2022-11-24T11:19:49.805Z,17.00
2022-11-24T11:34:14.405Z,22.50
2022-11-24T11:36:51.691Z,15.30
2022-11-24T11:39:35.270Z,15.50
2022-11-24T11:42:31.383Z,24.60
2022-11-24T11:45:10.547Z,22.30
2022-11-24T11:47:53.513Z,27.50
2022-11-24T11:50:27.651Z,21.60
2022-11-24T11:53:19.826Z,38.90
2022-11-24T11:55:57.420Z,36.10
2022-11-24T11:58:59.369Z,29.10
2022-11-24T12:01:52.430Z,39.80
2022-11-24T12:04:33.980Z,27.30
2022-11-24T12:07:01.784Z,19.00
2022-11-24T12:09:41.644Z,17.10
2022-11-24T12:12:31.240Z,49.40
2022-11-24T12:15:31.131Z,18.10
2022-11-24T12:18:48.981Z,17.30
2022-11-24T12:21:27.770Z,24.60
2022-11-24T12:24:13.970Z,18.30
2022-11-24T12:26:57.019Z,16.60
2022-11-24T12:29:52.636Z,25.70
2022-11-24T12:32:39.109Z,27.70
2022-11-24T12:35:06.818Z,28.60
2022-11-24T12:37:53.432Z,19.00
2022-11-24T12:40:55.271Z,39.50
2022-11-24T12:43:34.859Z,22.30
2022-11-24T12:46:20.909Z,19.70
2022-11-24T12:49:07.244Z,15.20
2022-11-24T12:51:42.637Z,14.90
2022-11-24T12:54:14.490Z,17.80
2022-11-24T12:57:07.233Z,15.50
2022-11-24T12:59:59.805Z,70.60
2022-11-24T13:02:52.741Z,18.30
2022-11-24T13:05:31.756Z,14.60
2022-11-24T13:08:03.285Z,25.40
2022-11-24T13:10:58.173Z,34.70
2022-11-24T13:14:04.767Z,21.00
2022-11-24T13:16:37.198Z,19.00
2022-11-24T13:19:20.904Z,26.80
2022-11-24T13:21:59.616Z,24.30
2022-11-24T13:24:30.942Z,19.70
2022-11-24T13:27:14.362Z,12.50
2022-11-24T13:29:44.714Z,11.20
2022-11-24T13:32:12.997Z,14.10
2022-11-24T13:34:40.832Z,13.20
2022-11-24T13:37:33.655Z,19.60
2022-11-24T13:40:13.211Z,29.20
2022-11-24T13:43:10.375Z,30.40
2022-11-24T13:45:49.151Z,25.60
2022-11-24T13:48:20.075Z,19.20
2022-11-24T13:50:51.770Z,19.20
2022-11-24T13:53:42.150Z,18.00
2022-11-24T13:56:21.786Z,14.20
2022-11-24T13:59:27.446Z,14.60
2022-11-24T14:01:58.654Z,12.30
2022-11-24T14:04:31.002Z,15.10
2022-11-24T14:07:08.183Z,14.90
2022-11-24T14:09:47.710Z,14.50
2022-11-24T14:12:15.451Z,11.10
2022-11-24T14:14:46.098Z,19.70
2022-11-24T14:17:16.309Z,34.50
2022-11-24T14:19:46.908Z,30.30
2022-11-24T14:25:32.437Z,23.60
2022-11-24T14:28:00.601Z,19.80
2022-11-24T14:30:28.727Z,19.80
2022-11-24T14:32:58.371Z,16.20
2022-11-24T14:35:28.034Z,22.00
2022-11-24T14:37:56.507Z,18.40
2022-11-24T14:40:50.652Z,16.70
2022-11-24T14:43:30.091Z,13.60
2022-11-24T14:46:14.617Z,13.50
2022-11-24T14:48:48.925Z,27.70
2022-11-24T14:51:42.732Z,36.60
2022-11-24T14:54:21.591Z,42.00
2022-11-24T14:57:01.795Z,35.20
2022-11-24T14:59:32.122Z,23.50
2022-11-24T15:12:39.488Z,44.90
2022-11-24T15:15:13.359Z,47.70
2022-11-24T15:17:47.602Z,39.10
2022-11-24T15:20:25.274Z,39.30
2022-11-24T15:23:24.598Z,61.30
2022-11-24T15:26:12.875Z,46.10
2022-11-24T15:28:41.309Z,43.60
2022-11-24T15:31:14.185Z,47.80
2022-11-24T15:33:42.324Z,48.60
2022-11-24T15:36:12.407Z,53.80
2022-11-24T15:38:40.079Z,32.40
2022-11-24T15:41:27.629Z,23.50
2022-11-24T15:43:59.253Z,9.80
2022-11-24T16:02:04.627Z,61.20
2022-11-24T16:04:33.669Z,58.60
2022-11-24T16:07:01.690Z,35.00
2022-11-24T16:09:29.450Z,31.90
2022-11-24T16:11:57.153Z,38.70
2022-11-24T16:14:24.892Z,22.40
2022-11-24T16:16:52.672Z,23.60
2022-11-24T16:19:20.606Z,18.70
2022-11-24T16:21:48.771Z,24.30
2022-11-24T16:24:16.641Z,22.70
2022-11-24T16:26:44.539Z,42.60
2022-11-24T16:29:12.261Z,55.90
2022-11-24T16:38:16.550Z,23.70
2022-11-24T16:40:46.199Z,15.70
2022-11-24T16:43:14.014Z,24.10
2022-11-24T16:45:45.357Z,18.30
2022-11-24T16:48:13.542Z,20.10
2022-11-24T16:50:43.358Z,21.50
2022-11-24T16:55:39.312Z,17.20
2022-11-24T16:58:07.269Z,36.40
2022-11-24T17:00:35.047Z,55.10
2022-11-24T17:03:02.820Z,41.00
2022-11-24T17:05:31.222Z,28.50
2022-11-24T17:07:59.176Z,27.80
2022-11-24T17:10:26.962Z,29.20
2022-11-24T17:12:54.931Z,27.10
2022-11-24T17:15:33.562Z,39.40
2022-11-24T17:18:23.480Z,58.20
2022-11-24T17:20:50.767Z,60.90
2022-11-24T17:23:19.813Z,215.70
2022-11-24T17:25:48.952Z,71.80
2022-11-24T17:28:16.864Z,57.00
2022-11-24T17:30:44.781Z,48.00
2022-11-24T17:33:12.888Z,34.50
2022-11-24T17:35:40.668Z,25.20
2022-11-24T17:38:08.802Z,31.40
2022-11-24T17:40:36.735Z,22.50
2022-11-24T17:43:04.712Z,32.20
2022-11-24T17:45:32.573Z,25.00
2022-11-24T17:48:01.003Z,25.60
2022-11-24T17:50:28.936Z,19.20
2022-11-24T17:52:56.906Z,22.10
2022-11-24T17:55:24.982Z,32.60
2022-11-24T17:57:52.831Z,54.80
2022-11-24T18:00:20.875Z,54.50
2022-11-24T18:02:48.758Z,27.20
2022-11-24T18:05:17.048Z,27.20
2022-11-24T18:07:44.951Z,30.80
2022-11-24T18:10:12.720Z,26.70
2022-11-24T18:12:40.581Z,14.30
2022-11-24T18:15:09.097Z,19.50
2022-11-24T18:17:37.326Z,19.30
2022-11-24T18:20:06.162Z,33.00
2022-11-24T18:26:05.271Z,43.40
2022-11-24T18:28:35.282Z,31.80
2022-11-24T18:31:11.216Z,22.10
2022-11-24T18:33:43.764Z,25.80
2022-11-24T18:36:18.144Z,25.10
2022-11-24T18:38:46.244Z,24.20
2022-11-24T18:41:15.120Z,18.20
2022-11-24T18:43:43.463Z,18.90
2022-11-24T18:46:16.648Z,32.40
2022-11-24T18:48:45.709Z,62.20
2022-11-24T18:51:14.883Z,57.60
2022-11-24T18:53:44.746Z,32.50
2022-11-24T18:56:16.017Z,31.80
2022-11-24T18:58:44.411Z,20.70
2022-11-24T19:01:18.687Z,26.70
2022-11-24T19:03:49.583Z,22.60
2022-11-24T19:06:23.949Z,27.50
2022-11-24T19:08:55.155Z,19.20
2022-11-24T19:11:25.644Z,24.00
2022-11-24T19:13:53.962Z,36.20
2022-11-24T19:16:23.149Z,51.10
2022-11-24T19:18:54.253Z,52.00
2022-11-24T19:21:22.828Z,42.60
2022-11-24T19:27:21.106Z,38.00
2022-11-24T19:29:48.813Z,34.80
2022-11-24T19:32:19.334Z,20.30
2022-11-24T19:34:47.067Z,23.50
2022-11-24T19:37:14.911Z,13.20
2022-11-24T19:39:42.718Z,30.50
2022-11-24T19:42:10.460Z,26.00
2022-11-24T19:44:38.208Z,39.00
2022-11-24T19:47:05.967Z,42.10
2022-11-24T19:49:33.684Z,64.60
2022-11-24T19:52:01.737Z,35.20
2022-11-24T19:54:29.471Z,47.10
2022-11-24T19:56:57.242Z,39.20
2022-11-24T19:59:26.407Z,61.60
2022-11-24T20:01:54.538Z,44.10
2022-11-24T20:04:22.620Z,38.90
2022-11-24T20:06:51.390Z,34.00
2022-11-24T20:09:19.206Z,57.10
2022-11-24T20:11:48.643Z,46.30
2022-11-24T20:14:20.492Z,33.60
2022-11-24T20:16:48.483Z,64.80
2022-11-24T20:19:18.406Z,54.00
2022-11-24T20:21:49.210Z,29.10
2022-11-24T20:27:48.039Z,68.90
2022-11-24T20:30:15.939Z,71.10
2022-11-24T20:32:43.789Z,53.50
2022-11-24T20:35:17.879Z,50.10
2022-11-24T20:37:46.366Z,42.30
2022-11-24T20:40:14.259Z,35.30
2022-11-24T20:42:41.973Z,40.00
2022-11-24T20:45:09.762Z,31.80
2022-11-24T20:47:37.555Z,26.60
2022-11-24T20:50:05.788Z,37.30
2022-11-24T20:52:33.787Z,35.50
2022-11-24T20:55:04.008Z,49.80
2022-11-24T20:57:31.710Z,56.40
2022-11-24T20:59:59.443Z,47.60
2022-11-24T21:02:27.239Z,41.10
2022-11-24T21:04:55.176Z,40.40
2022-11-24T21:07:23.541Z,28.70
2022-11-24T21:09:51.343Z,33.90
2022-11-24T21:12:19.043Z,26.20
2022-11-24T21:14:46.816Z,32.20
2022-11-24T21:17:14.821Z,26.60
2022-11-24T21:19:42.704Z,26.60
2022-11-24T21:22:10.447Z,38.90
2022-11-24T21:24:38.214Z,48.70
2022-11-24T21:27:05.921Z,53.50
2022-11-24T21:29:33.599Z,43.00
2022-11-24T21:32:01.418Z,48.90
2022-11-24T21:34:29.349Z,64.10
2022-11-24T21:36:57.273Z,36.80
2022-11-24T21:39:25.139Z,28.20
2022-11-24T21:41:52.921Z,34.40
2022-11-24T21:44:20.699Z,33.10
2022-11-24T21:46:54.351Z,34.00
2022-11-24T21:49:23.605Z,33.10
2022-11-24T21:51:55.443Z,23.70
2022-11-24T21:54:23.694Z,25.50
2022-11-24T21:56:53.299Z,39.40
2022-11-24T21:59:22.021Z,75.60
2022-11-24T22:01:49.820Z,55.70
2022-11-24T22:04:17.652Z,31.20
2022-11-24T22:06:45.380Z,38.50
2022-11-24T22:09:17.733Z,25.10
2022-11-24T22:11:49.284Z,26.20
2022-11-24T22:14:17.341Z,14.80
2022-11-24T22:16:45.213Z,38.50
2022-11-24T22:19:12.995Z,28.80
2022-11-24T22:21:41.557Z,20.00
2022-11-24T22:24:09.361Z,45.90
2022-11-24T22:26:37.153Z,76.40
2022-11-24T22:29:05.255Z,64.80
2022-11-24T22:31:33.193Z,51.40
2022-11-24T22:34:01.460Z,33.20
2022-11-24T22:36:30.601Z,36.30
2022-11-24T22:39:03.671Z,31.70
2022-11-24T22:41:35.465Z,26.80
2022-11-24T22:44:04.178Z,16.20
2022-11-24T22:46:32.403Z,43.20
2022-11-24T22:49:01.544Z,76.10
2022-11-24T22:51:34.602Z,79.10
2022-11-24T22:54:04.275Z,48.80
2022-11-24T22:56:33.522Z,55.90
2022-11-24T22:59:02.270Z,26.80
2022-11-24T23:01:31.437Z,26.50
2022-11-24T23:03:59.579Z,26.10
2022-11-24T23:06:30.686Z,29.10
2022-11-24T23:09:00.119Z,21.60
2022-11-24T23:11:37.231Z,34.00
2022-11-24T23:14:08.498Z,69.70
2022-11-24T23:16:36.356Z,83.50
2022-11-24T23:19:04.417Z,90.60
2022-11-24T23:21:34.969Z,65.50
2022-11-24T23:24:04.699Z,37.60
2022-11-24T23:29:02.753Z,34.00
2022-11-24T23:31:31.127Z,40.30
2022-11-24T23:34:01.260Z,34.30
2022-11-24T23:36:30.404Z,25.90
2022-11-24T23:39:06.459Z,27.30
2022-11-24T23:41:34.783Z,24.70
2022-11-24T23:44:02.557Z,37.10
2022-11-24T23:46:30.838Z,59.40
2022-11-24T23:48:58.715Z,55.30
2022-11-24T23:51:29.526Z,50.00
2022-11-24T23:53:58.331Z,40.80
2022-11-24T23:56:29.329Z,24.50
2022-11-24T23:58:57.087Z,30.70
